Time;durP1;ratioP1;P1;durP2;ratioP2;P2;SDS_P1;SDS_P2;PMS_P1;PMS_P2;Temp;Humidity;BMP_temperature;BMP_pressure;BME280_temperature;BME280_humidity;BME280_pressure;Samples;Min_cycle;Max_cycle;Signal;HPM_P1;HPM_P2
2022/05/27 00:00:43;;;;;;;32.47;8.68;;;17.50;99.90;;;17.29;89.13;101844.34;4845410;29;20563;-78
2022/05/27 00:03:14;;;;;;;34.38;8.15;;;17.40;99.90;;;17.84;89.05;101898.72;4845700;29;20454;-78
2022/05/27 00:05:42;;;;;;;33.65;8.30;;;17.50;99.90;;;17.46;89.62;101849.44;4845051;29;20046;-78
2022/05/27 00:08:12;;;;;;;32.03;8.48;;;17.50;99.90;;;17.67;90.15;101897.25;4844052;29;20080;-78
2022/05/27 00:10:40;;;;;;;30.15;9.13;;;17.40;99.90;;;17.36;91.13;101903.97;4845201;29;20081;-78
2022/05/27 00:13:08;;;;;;;40.60;9.43;;;17.20;99.90;;;17.33;92.50;101906.69;4844864;29;20080;-78
2022/05/27 00:15:37;;;;;;;40.47;9.23;;;17.10;99.90;;;17.10;93.62;101905.25;4828585;29;20058;-78
2022/05/27 00:18:05;;;;;;;35.40;9.23;;;16.90;99.90;;;17.17;94.39;101900.69;4845133;29;20049;-78
2022/05/27 00:20:36;;;;;;;43.38;10.07;;;16.90;99.90;;;17.08;95.46;101903.50;4845105;29;20050;-78
2022/05/27 00:23:06;;;;;;;40.47;10.90;;;16.80;99.90;;;17.10;96.25;101905.25;4845028;29;20500;-78
2022/05/27 00:25:34;;;;;;;38.33;11.27;;;16.80;99.90;;;17.17;95.43;101889.13;4843733;29;20053;-78
2022/05/27 00:28:03;;;;;;;44.30;11.27;;;16.90;99.90;;;17.19;95.42;101914.06;4845045;29;20046;-77
2022/05/27 00:30:32;;;;;;;48.53;11.25;;;16.90;99.90;;;16.87;96.06;101912.72;4844225;29;20145;-78
2022/05/27 00:33:00;;;;;;;51.05;12.43;;;16.60;99.90;;;17.01;95.75;101910.72;4844545;29;20045;-78
2022/05/27 00:35:29;;;;;;;46.85;11.57;;;16.60;99.90;;;16.80;95.70;101904.81;4844957;29;20045;-78
2022/05/27 00:37:58;;;;;;;49.75;12.43;;;16.60;99.90;;;16.70;96.12;101904.03;4844797;29;20133;-79
2022/05/27 00:40:35;;;;;;;43.20;10.83;;;16.50;99.90;;;16.71;96.31;101900.44;4844467;29;20424;-78
2022/05/27 00:43:03;;;;;;;40.88;11.43;;;16.50;99.90;;;16.65;96.66;101897.84;4844820;29;20337;-77
2022/05/27 00:45:34;;;;;;;43.67;12.25;;;16.40;99.90;;;16.69;96.82;101902.25;4844673;29;20050;-77
2022/05/27 00:48:08;;;;;;;41.45;10.00;;;16.40;99.90;;;16.76;96.02;101903.94;4844837;29;20052;-77
2022/05/27 00:50:40;;;;;;;47.95;10.73;;;16.50;99.90;;;16.43;95.85;101820.66;4844539;29;20077;-77
2022/05/27 00:53:14;;;;;;;38.30;9.15;;;16.60;99.90;;;16.85;95.33;101898.50;4843106;29;20405;-77
2022/05/27 00:55:47;;;;;;;42.03;10.27;;;16.60;99.90;;;16.71;94.80;101883.53;4844585;29;20053;-77
2022/05/27 00:58:21;;;;;;;36.80;9.90;;;16.50;99.90;;;16.89;95.04;101896.66;4827889;29;20050;-76
2022/05/27 01:00:50;;;;;;;36.47;10.70;;;16.60;99.90;;;16.86;95.13;101899.38;4844060;29;20065;-77
2022/05/27 01:03:20;;;;;;;39.70;10.45;;;16.60;99.90;;;16.92;94.48;101894.81;4843008;29;20144;-77
2022/05/27 01:05:49;;;;;;;36.42;10.68;;;16.70;99.90;;;16.80;94.57;101878.09;4844465;29;20054;-77
2022/05/27 01:08:22;;;;;;;39.55;10.80;;;16.60;99.90;;;16.86;94.12;101894.91;4844136;29;20133;-77
2022/05/27 01:11:10;;;;;;;37.00;9.55;;;16.60;99.90;;;16.86;93.98;101891.38;4843854;29;20046;-77
2022/05/27 01:13:51;;;;;;;36.55;9.52;;;16.60;99.90;;;16.99;93.96;101882.25;4844027;29;20057;-77
2022/05/27 01:16:27;;;;;;;33.80;9.25;;;16.60;99.90;;;16.77;93.97;101892.34;4843861;29;20042;-77
2022/05/27 01:22:37;;;;;;;36.20;8.65;;;16.50;99.90;;;16.51;93.49;101835.69;4842729;29;20086;-77
2022/05/27 01:25:38;;;;;;;33.55;9.20;;;16.50;99.90;;;16.72;93.80;101882.63;4842626;29;20053;-77
2022/05/27 01:28:35;;;;;;;;;;;16.40;99.90;;;16.45;93.66;101843.78;4844284;29;20042;-77
2022/05/27 01:31:20;;;;;;;31.10;8.18;;;16.40;99.90;;;16.74;93.93;101895.06;4843536;29;19973;-77
2022/05/27 01:34:06;;;;;;;25.45;8.35;;;16.40;99.90;;;16.71;93.09;101884.41;4843702;29;20523;-77
2022/05/27 01:36:45;;;;;;;28.02;7.85;;;16.50;99.90;;;16.76;92.95;101890.56;4843427;29;20053;-78
2022/05/27 01:39:24;;;;;;;30.13;8.77;;;16.50;99.90;;;16.89;92.69;101894.88;4843397;29;20464;-77
2022/05/27 01:42:03;;;;;;;29.70;8.10;;;16.60;99.90;;;16.90;91.99;101890.38;4843722;29;20102;-77
2022/05/27 01:44:42;;;;;;;26.60;8.05;;;16.60;99.90;;;16.98;91.42;101884.03;4840369;29;20361;-66
2022/05/27 01:47:19;;;;;;;31.55;9.48;;;16.70;99.90;;;16.89;91.69;101881.50;4842066;29;20058;-66
2022/05/27 01:49:58;;;;;;;27.60;8.43;;;16.70;99.90;;;16.83;91.90;101873.56;4842003;29;20110;-66
2022/05/27 01:52:32;;;;;;;26.80;7.80;;;16.60;99.90;;;16.88;91.58;101882.41;4842027;29;20126;-66
2022/05/27 01:55:07;;;;;;;25.08;8.50;;;16.60;99.90;;;16.81;92.06;101880.72;4842019;29;20221;-66
2022/05/27 01:57:42;;;;;;;25.40;8.27;;;16.60;99.90;;;16.78;92.21;101886.09;4842628;29;20072;-66
2022/05/27 02:00:16;;;;;;;25.35;7.85;;;16.50;99.90;;;16.89;91.88;101884.19;4842411;29;20089;-66
2022/05/27 02:02:52;;;;;;;25.75;7.43;;;16.50;99.90;;;16.89;91.45;101873.50;4842021;29;20444;-66
2022/05/27 02:05:27;;;;;;;28.75;7.88;;;16.60;99.90;;;16.86;91.58;101870.84;4841909;29;20069;-66
2022/05/27 02:08:00;;;;;;;26.10;7.72;;;16.60;99.90;;;16.61;91.62;101860.50;4841642;29;20053;-66
2022/05/27 02:10:46;;;;;;;21.50;6.88;;;16.50;99.90;;;16.70;91.60;101876.44;4841644;29;20125;-66
2022/05/27 02:13:20;;;;;;;22.83;6.65;;;16.50;99.90;;;16.74;91.78;101868.34;4841524;29;20137;-66
2022/05/27 02:15:52;;;;;;;23.95;7.20;;;16.50;99.90;;;16.72;91.90;101870.16;4842067;29;20075;-66
2022/05/27 02:18:28;;;;;;;24.73;7.32;;;16.50;99.90;;;16.67;91.75;101866.66;4841824;29;20453;-66
2022/05/27 02:21:10;;;;;;;21.27;7.43;;;16.40;99.90;;;16.68;91.85;101876.47;4841474;29;20141;-66
2022/05/27 02:23:43;;;;;;;25.20;7.80;;;16.40;99.90;;;16.21;92.08;101809.38;4841704;29;20096;-67
2022/05/27 02:26:16;;;;;;;24.77;7.53;;;16.40;99.90;;;16.68;91.94;101891.59;4841452;29;20523;-66
2022/05/27 02:28:50;;;;;;;21.85;7.40;;;16.40;99.90;;;16.56;91.69;101879.28;4841414;29;20145;-66
2022/05/27 02:31:24;;;;;;;23.80;7.10;;;16.30;99.90;;;16.52;92.21;101874.88;4841462;29;20125;-66
2022/05/27 02:37:00;;;;;;;21.40;7.10;;;16.30;99.90;;;16.49;92.35;101871.38;4840007;29;20058;-66
2022/05/27 02:39:29;;;;;;;18.00;7.10;;;16.30;99.90;;;16.58;92.43;101876.59;4841423;29;20129;-66
2022/05/27 02:42:03;;;;;;;26.02;7.30;;;16.20;99.90;;;16.42;92.49;101873.19;4841493;29;20434;-66
2022/05/27 02:44:43;;;;;;;22.58;8.43;;;16.20;99.90;;;16.37;92.96;101863.47;4841564;29;20664;-66
2022/05/27 02:47:19;;;;;;;28.23;7.57;;;16.20;99.90;;;16.52;92.89;101874.88;4841619;29;20073;-67
2022/05/27 02:49:59;;;;;;;18.40;7.07;;;16.20;99.90;;;16.57;92.06;101872.16;4841341;29;20377;-66
2022/05/27 02:52:37;;;;;;;16.75;6.65;;;16.30;99.90;;;16.44;92.77;101874.06;4841351;29;20527;-66
2022/05/27 02:55:16;;;;;;;25.88;7.95;;;16.10;99.90;;;16.36;93.25;101875.94;4845884;29;20544;-66
2022/05/27 02:57:47;;;;;;;21.27;7.40;;;16.10;99.90;;;16.19;93.32;101862.78;4847742;29;20526;-66
2022/05/27 03:00:20;;;;;;;21.00;7.20;;;16.00;99.90;;;16.24;93.86;101881.41;4847558;29;20046;-66
2022/05/27 03:02:49;;;;;;;21.40;7.18;;;16.00;99.90;;;16.06;93.69;101852.25;4848144;29;20523;-66
2022/05/27 03:05:24;;;;;;;21.25;7.35;;;16.00;99.90;;;16.18;93.88;101873.50;4847752;29;20102;-66
2022/05/27 03:08:08;;;;;;;22.08;7.68;;;16.00;99.90;;;16.14;94.60;101872.63;4831140;29;20460;-66
2022/05/27 03:10:54;;;;;;;24.92;6.82;;;15.90;99.90;;;16.21;94.29;101877.00;4847788;29;20050;-66
2022/05/27 03:13:44;;;;;;;20.63;7.10;;;15.90;99.90;;;16.24;94.63;101868.94;4847348;29;20106;-67
2022/05/27 03:16:24;;;;;;;19.75;7.13;;;15.90;99.90;;;16.32;94.28;101874.19;4847452;29;20045;-66
2022/05/27 03:19:23;;;;;;;21.08;7.60;;;16.00;99.90;;;16.20;94.22;101874.34;4847492;29;20050;-66
2022/05/27 03:22:01;;;;;;;18.25;7.43;;;15.90;99.90;;;15.96;94.51;101839.91;4847795;29;20077;-66
2022/05/27 03:24:43;;;;;;;21.98;6.85;;;15.90;99.90;;;16.30;94.19;101877.81;4847498;29;20050;-66
2022/05/27 03:27:18;;;;;;;19.40;7.63;;;16.00;99.90;;;16.22;93.75;101880.53;4847208;29;20404;-67
2022/05/27 03:29:53;;;;;;;22.40;7.63;;;16.00;99.90;;;16.28;93.09;101893.81;4847551;29;20499;-66
2022/05/27 03:32:29;;;;;;;24.20;8.13;;;16.00;99.90;;;16.25;93.18;101867.16;4847437;29;20114;-66
2022/05/27 03:35:08;;;;;;;18.00;7.07;;;16.00;99.90;;;16.20;92.88;101880.56;4847345;29;20053;-66
2022/05/27 03:37:45;;;;;;;22.08;7.30;;;16.00;99.90;;;16.33;92.87;101896.44;4847525;29;20070;-66
2022/05/27 03:40:18;;;;;;;19.60;7.43;;;16.00;99.90;;;16.19;92.61;101875.25;4846325;29;20053;-66
2022/05/27 03:42:46;;;;;;;25.65;7.07;;;16.00;99.90;;;16.37;92.18;101892.84;4847134;29;20128;-66
2022/05/27 03:45:18;;;;;;;21.98;7.97;;;16.10;99.90;;;16.34;91.59;101895.56;4846999;29;20368;-66
2022/05/27 03:47:47;;;;;;;21.40;7.07;;;16.10;99.90;;;16.32;91.20;101892.88;4847251;29;20137;-66
2022/05/27 03:50:18;;;;;;;17.13;6.65;;;16.00;99.90;;;16.23;91.28;101901.91;4845955;29;20468;-66
2022/05/27 03:52:51;;;;;;;18.73;7.43;;;16.00;99.90;;;16.27;91.23;101902.75;4846944;29;20072;-66
2022/05/27 03:55:22;;;;;;;19.42;6.88;;;16.00;99.90;;;16.31;90.70;101908.94;4847005;29;20432;-66
2022/05/27 03:57:50;;;;;;;24.88;7.18;;;16.00;99.90;;;16.22;90.83;101901.91;4847377;29;20046;-66
2022/05/27 04:00:19;;;;;;;17.27;6.50;;;15.90;99.90;;;16.24;91.54;101913.44;4846802;29;20053;-67
2022/05/27 04:02:48;;;;;;;18.65;7.05;;;15.90;99.90;;;16.23;91.28;101909.03;4847007;29;20042;-66
2022/05/27 04:05:18;;;;;;;19.20;6.60;;;15.90;99.90;;;16.38;91.01;101894.59;4845778;29;20150;-66
2022/05/27 04:07:48;;;;;;;15.98;6.57;;;16.10;99.90;;;16.38;90.88;101905.28;4843566;29;20061;-66
2022/05/27 04:10:16;;;;;;;20.27;7.47;;;16.10;99.90;;;16.34;91.27;101899.09;4843719;29;20504;-66
2022/05/27 04:12:45;;;;;;;20.00;7.70;;;16.10;99.90;;;16.40;91.22;101898.13;4844242;29;20060;-66
2022/05/27 04:15:18;;;;;;;22.75;7.45;;;16.10;99.90;;;16.41;90.79;101899.91;4843948;29;20046;-66
2022/05/27 04:17:47;;;;;;;21.75;7.10;;;16.10;99.90;;;16.52;90.16;101904.25;4843984;29;20110;-66
2022/05/27 04:20:19;;;;;;;20.98;6.93;;;16.20;99.90;;;16.35;90.43;101900.88;4843536;29;20140;-66
2022/05/27 04:22:54;;;;;;;20.35;7.28;;;16.10;99.90;;;16.32;90.59;101900.91;4843571;29;20069;-67
2022/05/27 04:25:22;;;;;;;22.48;7.07;;;16.10;99.90;;;16.45;90.67;101902.53;4844041;29;20061;-66
2022/05/27 04:27:51;;;;;;;24.90;6.68;;;16.20;99.90;;;16.49;89.89;101909.63;4843487;29;20050;-67
2022/05/27 04:30:20;;;;;;;16.90;7.18;;;16.20;99.90;;;16.50;90.50;101906.06;4827137;29;20519;-66
2022/05/27 04:32:48;;;;;;;16.70;6.85;;;16.20;99.90;;;16.52;90.08;101911.38;4843523;29;20141;-66
2022/05/27 04:35:16;;;;;;;18.30;6.32;;;16.20;99.90;;;16.45;90.04;101918.56;4843270;29;20046;-66
2022/05/27 04:37:45;;;;;;;17.48;7.15;;;16.20;99.90;;;16.49;89.66;101914.97;4843662;29;20129;-66
2022/05/27 04:40:15;;;;;;;18.45;7.13;;;16.20;99.90;;;16.40;89.32;101893.69;4826821;29;20140;-66
2022/05/27 04:42:44;;;;;;;20.33;7.53;;;16.30;99.90;;;16.59;88.37;101911.28;4843247;29;20045;-66
2022/05/27 04:45:13;;;;;;;16.53;6.33;;;16.30;99.90;;;16.56;87.57;101908.66;4843693;29;20092;-66
2022/05/27 04:47:41;;;;;;;17.55;6.60;;;16.30;99.90;;;16.60;87.23;101913.06;4843325;29;20468;-66
2022/05/27 04:50:11;;;;;;;16.52;5.68;;;16.40;99.90;;;16.62;87.02;101911.28;4843035;29;20069;-67
2022/05/27 04:52:40;;;;;;;19.23;6.67;;;16.40;99.90;;;16.66;86.66;101921.00;4842939;29;20366;-66
2022/05/27 04:55:13;;;;;;;13.77;6.28;;;16.40;99.90;;;16.61;86.51;101914.81;4843016;29;20400;-67
2022/05/27 04:57:47;;;;;;;14.55;5.80;;;16.40;99.90;;;16.61;86.63;101921.94;4843025;29;20077;-66
2022/05/27 05:00:19;;;;;;;17.60;6.55;;;16.30;99.90;;;16.67;86.84;101919.19;4842942;29;20125;-67
2022/05/27 05:02:47;;;;;;;19.42;6.13;;;16.40;99.90;;;16.66;86.73;101931.69;4842803;29;20076;-66
2022/05/27 05:05:18;;;;;;;15.00;6.15;;;16.40;99.90;;;16.56;86.59;101935.38;4826488;29;20073;-67
2022/05/27 05:07:52;;;;;;;14.05;6.25;;;16.30;99.90;;;16.62;86.57;101929.97;4842727;29;20085;-66
2022/05/27 05:10:23;;;;;;;15.23;6.07;;;16.40;99.90;;;16.49;86.68;101944.34;4842770;29;20129;-67
2022/05/27 05:12:53;;;;;;;14.10;5.93;;;16.20;99.90;;;16.54;86.17;101945.19;4843230;29;20115;-66
2022/05/27 05:15:24;;;;;;;15.20;6.32;;;16.30;99.90;;;16.44;86.08;101929.25;4843023;29;20148;-66
2022/05/27 05:17:53;;;;;;;13.77;6.18;;;16.20;99.90;;;16.58;85.46;101951.38;4842457;29;20445;-67
2022/05/27 05:20:25;;;;;;;17.67;6.60;;;16.30;99.90;;;16.12;85.37;101871.75;4842808;29;20069;-67
2022/05/27 05:22:54;;;;;;;14.65;6.28;;;16.30;99.90;;;16.63;84.73;101950.44;4842887;29;20054;-67
2022/05/27 05:25:23;;;;;;;16.60;6.25;;;16.30;99.90;;;16.59;84.03;101947.81;4842310;29;20492;-67
2022/05/27 05:27:53;;;;;;;16.73;5.93;;;16.30;99.90;;;16.45;84.13;101942.63;4842333;29;20054;-67
2022/05/27 05:30:25;;;;;;;15.25;6.45;;;16.20;99.90;;;16.53;84.78;101950.56;4842625;29;20121;-67
2022/05/27 05:32:54;;;;;;;15.60;6.05;;;16.20;99.90;;;16.56;84.55;101959.44;4842321;29;20504;-67
2022/05/27 05:35:23;;;;;;;17.88;6.63;;;16.20;99.90;;;16.62;84.90;101954.00;4842414;29;20369;-67
2022/05/27 05:37:51;;;;;;;16.00;6.28;;;16.30;99.90;;;16.73;84.68;101943.19;4842657;29;20133;-67
2022/05/27 05:40:20;;;;;;;15.77;6.18;;;16.50;99.90;;;16.84;84.22;101950.16;4842698;29;20132;-67
2022/05/27 05:42:49;;;;;;;16.23;6.35;;;16.60;99.90;;;17.06;83.77;101964.13;4842140;29;20125;-67
2022/05/27 05:45:20;;;;;;;14.80;6.22;;;16.70;99.90;;;16.85;83.41;101959.97;4842490;29;20508;-67
2022/05/27 05:47:48;;;;;;;17.25;6.47;;;16.60;99.90;;;16.85;83.43;101965.31;4842780;29;20046;-66
2022/05/27 05:50:18;;;;;;;12.00;5.40;;;16.50;99.90;;;16.72;83.17;101969.03;4842216;29;20045;-67
2022/05/27 05:52:47;;;;;;;19.95;6.18;;;16.50;99.90;;;16.75;83.15;101971.66;4842244;29;20449;-66
2022/05/27 05:55:18;;;;;;;12.97;6.77;;;16.40;99.90;;;16.75;84.45;101973.44;4842299;29;20506;-67
2022/05/27 05:57:49;;;;;;;;;;;16.40;99.90;;;16.76;85.81;101977.91;4842899;29;20073;-67
2022/05/27 06:00:23;;;;;;;18.90;7.82;;;16.50;99.90;;;16.53;87.01;101980.81;4842823;29;19925;-67
2022/05/27 06:02:52;;;;;;;17.70;7.15;;;16.30;99.90;;;16.57;86.53;101974.53;4842094;29;20509;-66
2022/05/27 06:05:21;;;;;;;17.42;7.38;;;16.30;99.90;;;16.51;86.44;101974.59;4842448;29;20058;-66
2022/05/27 06:07:51;;;;;;;16.60;8.55;;;16.20;99.90;;;16.47;87.61;101980.88;4842441;29;20142;-67
2022/05/27 06:10:20;;;;;;;16.75;8.07;;;16.20;99.90;;;16.60;87.62;101985.22;4842403;29;20077;-66
2022/05/27 06:12:49;;;;;;;20.85;8.70;;;16.30;99.90;;;16.38;88.33;101985.41;4826010;29;20493;-66
2022/05/27 06:15:23;;;;;;;17.80;9.10;;;16.10;99.90;;;16.15;89.05;101989.19;4842581;29;20113;-66
2022/05/27 06:17:51;;;;;;;17.63;8.75;;;16.00;99.90;;;16.21;89.45;101988.25;4842046;29;20046;-66
2022/05/27 06:20:20;;;;;;;18.85;8.20;;;16.00;99.90;;;16.30;88.71;101965.94;4841830;29;20038;-67
2022/05/27 06:22:48;;;;;;;19.33;8.52;;;16.00;99.90;;;16.52;88.07;101997.75;4842262;29;20084;-66
2022/05/27 06:25:23;;;;;;;15.80;7.75;;;16.20;99.90;;;16.67;87.82;101999.38;4841708;29;20092;-66
2022/05/27 06:34:23;;;;;;;19.17;8.25;;;16.30;99.90;;;16.52;86.33;102005.78;4841774;29;20118;-66
2022/05/27 06:36:13;;;;;;;17.45;6.88;;;16.20;99.90;;;16.02;79.47;101933.28;4841514;29;20046;-67
2022/05/27 06:38:42;;;;;;;13.70;6.65;;;16.20;99.90;;;16.44;77.67;102007.59;4841321;29;20124;-66
2022/05/27 06:41:10;;;;;;;15.43;6.53;;;16.20;99.90;;;16.52;77.25;102005.78;4840273;29;20054;-67
2022/05/27 06:43:38;;;;;;;19.90;7.30;;;16.20;99.90;;;16.64;78.40;102011.00;4841325;29;20465;-67
2022/05/27 06:46:08;;;;;;;14.70;6.68;;;16.30;99.90;;;16.72;79.27;102014.47;4841591;29;20052;-67
2022/05/27 06:48:36;;;;;;;12.07;5.90;;;16.40;99.90;;;16.91;80.13;102021.38;4841296;29;20099;-67
2022/05/27 06:51:06;;;;;;;15.75;6.72;;;16.60;99.90;;;16.62;77.27;102015.47;4841478;29;20326;-66
2022/05/27 06:53:35;;;;;;;13.80;6.63;;;16.50;99.90;;;16.46;77.53;102003.13;4841515;29;20046;-67
2022/05/27 06:56:04;;;;;;;19.27;6.32;;;16.40;99.90;;;16.57;76.03;102025.28;4841512;29;20114;-67
2022/05/27 06:58:33;;;;;;;22.10;6.75;;;16.40;99.90;;;16.66;75.29;102035.00;4841423;29;20138;-67
2022/05/27 07:01:01;;;;;;;15.82;6.60;;;16.40;99.90;;;16.71;74.81;102019.81;4841431;29;20110;-66
2022/05/27 07:03:31;;;;;;;15.95;7.00;;;16.50;99.90;;;16.70;75.11;102034.09;4841379;29;20046;-67
2022/05/27 07:06:00;;;;;;;14.88;6.63;;;16.40;99.90;;;16.75;74.22;102032.22;4841218;29;20128;-67
2022/05/27 07:08:29;;;;;;;19.80;6.95;;;16.50;99.90;;;16.75;74.29;102032.22;4841037;29;20164;-67
2022/05/27 07:10:57;;;;;;;17.50;6.50;;;16.50;99.90;;;16.67;73.04;102010.94;4840932;29;20493;-67
2022/05/27 07:13:25;;;;;;;12.93;6.50;;;16.50;99.90;;;16.86;72.79;102033.88;4841210;29;20042;-67
2022/05/27 07:15:54;;;;;;;15.93;6.50;;;16.60;99.90;;;17.06;72.19;102030.97;4841287;29;20061;-67
2022/05/27 07:18:22;;;;;;;13.40;5.95;;;16.70;99.90;;;16.66;70.87;102027.00;4840994;29;20519;-67
2022/05/27 07:20:59;;;;;;;15.63;6.05;;;16.60;99.90;;;16.69;72.28;102037.63;4841375;29;20595;-67
2022/05/27 07:23:28;;;;;;;16.05;7.00;;;16.40;99.90;;;16.63;72.38;102053.72;4841052;29;20069;-67
2022/05/27 07:25:56;;;;;;;17.45;6.95;;;16.40;99.90;;;16.72;73.05;102046.53;4824728;29;20054;-67
2022/05/27 07:28:24;;;;;;;17.02;6.60;;;16.40;99.90;;;16.73;74.18;102048.28;4841527;29;20073;-67
2022/05/27 07:30:54;;;;;;;14.27;7.10;;;16.40;99.90;;;16.49;75.88;102043.19;4841295;29;20050;-67
2022/05/27 07:33:22;;;;;;;15.50;6.53;;;16.30;99.90;;;16.55;75.94;102048.47;4840908;29;20077;-67
2022/05/27 07:35:52;;;;;;;19.98;7.28;;;16.20;99.90;;;16.51;76.16;102053.88;4841087;29;20074;-67
2022/05/27 07:38:20;;;;;;;16.98;6.35;;;16.30;99.90;;;16.46;75.95;102059.22;4839867;29;20469;-67
2022/05/27 07:40:49;;;;;;;16.35;7.10;;;16.20;99.90;;;16.40;76.35;102072.63;4841052;29;20042;-67
2022/05/27 07:43:19;;;;;;;14.60;7.15;;;16.10;99.90;;;16.63;76.02;102075.09;4844255;29;20712;-67
2022/05/27 07:45:49;;;;;;;;;;;16.30;99.90;;;16.74;75.37;102070.56;4844949;29;20492;-67
2022/05/27 07:48:17;;;;;;;18.98;7.07;;;16.50;99.90;;;16.72;73.66;102075.94;4843873;29;20386;-67
2022/05/27 07:50:45;;;;;;;18.27;6.30;;;16.50;99.90;;;16.71;70.44;102068.78;4844112;29;20053;-67
2022/05/27 07:53:16;;;;;;;13.95;6.00;;;16.50;99.90;;;16.54;70.02;102080.53;4844063;29;20444;-67
2022/05/27 07:55:45;;;;;;;21.05;6.25;;;16.30;99.90;;;16.69;68.17;102075.94;4843713;29;20152;-67
2022/05/27 07:58:14;;;;;;;19.48;6.82;;;16.40;99.90;;;16.74;66.77;102073.22;4842941;29;20515;-67
2022/05/27 08:00:42;;;;;;;17.13;5.65;;;16.50;99.90;;;16.71;63.00;102075.91;4844470;29;20053;-67
2022/05/27 08:03:12;;;;;;;19.38;5.85;;;16.40;99.90;;;16.67;61.56;102083.09;4843904;29;20501;-67
2022/05/27 08:05:40;;;;;;;16.75;5.68;;;16.40;99.90;;;16.84;61.85;102086.47;4843827;29;20157;-67
2022/05/27 08:08:09;;;;;;;18.38;6.53;;;16.50;99.90;;;16.72;61.88;102083.06;4843828;29;20067;-67
2022/05/27 08:10:41;;;;;;;16.48;6.10;;;16.50;99.90;;;16.79;61.65;102087.41;4843669;29;20128;-67
2022/05/27 08:13:09;;;;;;;18.52;6.63;;;16.50;99.90;;;17.02;61.96;102082.72;4844110;29;20178;-67
2022/05/27 08:15:38;;;;;;;16.33;6.32;;;16.70;99.90;;;17.07;63.01;102084.41;4844254;29;20050;-67
2022/05/27 08:18:07;;;;;;;18.63;5.75;;;16.80;99.90;;;16.70;61.15;102008.25;4827268;29;20114;-67
2022/05/27 08:20:38;;;;;;;20.17;6.22;;;16.90;99.90;;;16.91;61.33;102077.50;4843778;29;20362;-67
2022/05/27 08:23:07;;;;;;;19.02;6.38;;;16.80;99.90;;;16.92;61.22;102086.38;4843919;29;20078;-67
2022/05/27 08:25:39;;;;;;;14.02;6.40;;;16.60;99.90;;;16.90;61.95;102073.03;4843856;29;20058;-67
2022/05/27 08:28:08;;;;;;;18.25;7.28;;;16.70;99.90;;;16.97;62.00;102080.09;4843564;29;20050;-67
2022/05/27 08:30:40;;;;;;;17.75;6.13;;;16.70;99.90;;;17.04;61.51;102075.56;4842522;29;20457;-67
2022/05/27 08:33:09;;;;;;;21.25;7.50;;;16.80;99.90;;;17.02;61.96;102080.94;4844056;29;20129;-67
2022/05/27 08:38:31;;;;;;;17.92;6.40;;;16.80;99.90;;;17.00;58.18;102093.44;4843575;29;20066;-67
2022/05/27 08:41:31;;;;;;;29.65;7.47;;;16.70;99.90;;;17.27;56.86;102094.00;4843920;29;20488;-67
2022/05/27 08:44:19;;;;;;;14.57;5.77;;;17.00;99.90;;;17.04;55.68;102100.50;4843631;29;20507;-68
2022/05/27 08:46:58;;;;;;;18.85;6.25;;;16.80;99.90;;;16.64;55.79;102011.00;4843640;29;20749;-69
2022/05/27 08:49:34;;;;;;;14.00;6.35;;;16.90;99.90;;;17.13;56.46;102108.41;4843926;29;20061;-69
2022/05/27 08:52:10;;;;;;;16.90;5.97;;;16.90;99.90;;;17.22;57.16;102104.75;4843581;29;20071;-69
2022/05/27 08:54:42;;;;;;;16.02;5.68;;;16.90;99.90;;;17.28;56.67;102117.19;4843303;29;20106;-68
2022/05/27 09:00:05;;;;;;;21.20;6.75;;;17.10;99.90;;;17.09;56.85;102120.06;4843514;29;20057;-68
2022/05/27 09:02:39;;;;;;;25.08;7.00;;;16.90;99.90;;;17.17;56.41;102127.97;4827079;29;20086;-68
2022/05/27 09:05:17;;;;;;;21.60;7.00;;;16.90;99.90;;;17.54;57.42;102128.44;4843489;29;20106;-68
2022/05/27 09:07:52;;;;;;;19.58;6.40;;;17.20;99.90;;;17.65;56.51;102129.22;4843143;29;20141;-68
2022/05/27 09:10:24;;;;;;;20.65;6.82;;;17.40;99.90;;;17.33;57.12;102123.34;4843338;29;20430;-67
2022/05/27 09:13:15;;;;;;;23.35;7.03;;;17.10;99.90;;;17.22;58.26;102122.59;4843048;29;20076;-68
2022/05/27 09:15:54;;;;;;;21.77;6.53;;;17.00;99.90;;;17.36;58.52;102120.66;4843252;29;20102;-67
2022/05/27 09:18:29;;;;;;;21.67;6.30;;;17.10;99.90;;;17.35;59.62;102122.44;4843488;29;20046;-67
2022/05/27 09:21:14;;;;;;;25.77;7.15;;;17.10;99.90;;;17.07;59.80;102102.28;4843216;29;20480;-68
2022/05/27 09:24:01;;;;;;;23.50;6.97;;;17.00;99.90;;;17.18;60.61;102137.78;4842730;29;20073;-68
2022/05/27 09:26:37;;;;;;;22.65;6.32;;;16.90;99.90;;;16.94;60.64;102143.38;4842978;29;20101;-67
2022/05/27 09:29:26;;;;;;;31.30;7.25;;;16.80;99.90;;;16.82;61.23;102139.03;4842819;29;20074;-67
2022/05/27 09:32:05;;;;;;;20.58;6.78;;;16.60;99.90;;;16.73;62.67;102147.16;4843208;29;20142;-67
2022/05/27 09:34:38;;;;;;;27.15;7.40;;;16.50;99.90;;;16.84;62.90;102141.72;4843089;29;20050;-67
2022/05/27 09:37:10;;;;;;;20.05;6.15;;;16.60;99.90;;;16.95;63.20;102135.38;4842521;29;20089;-68
2022/05/27 09:39:38;;;;;;;28.30;6.63;;;16.60;99.90;;;17.08;62.33;102141.47;4842457;29;20054;-67
2022/05/27 09:42:17;;;;;;;22.73;7.05;;;16.80;99.90;;;17.17;61.19;102146.69;4842919;29;20042;-67
2022/05/27 09:44:53;;;;;;;26.77;6.28;;;16.90;99.90;;;16.34;63.12;102143.91;4842308;29;20159;-67
2022/05/27 09:47:23;;;;;;;26.60;7.63;;;16.30;99.90;;;16.22;64.45;102139.53;4842844;29;20072;-67
2022/05/27 09:49:58;;;;;;;27.73;7.65;;;16.00;99.90;;;16.20;64.31;102131.53;4842212;29;20458;-67
2022/05/27 09:52:31;;;;;;;30.20;7.63;;;16.00;99.90;;;16.32;64.02;102165.28;4842484;29;20050;-67
2022/05/27 09:55:15;;;;;;;28.58;7.47;;;16.10;99.90;;;16.57;64.51;102150.00;4842301;29;20058;-67
2022/05/27 09:57:57;;;;;;;31.75;7.90;;;16.20;99.90;;;16.44;63.56;102135.81;4842227;29;20106;-67
2022/05/27 10:00:48;;;;;;;23.52;6.55;;;16.30;99.90;;;16.65;62.01;102167.72;4842192;29;20046;-68
2022/05/27 10:03:36;;;;;;;23.17;7.45;;;16.40;99.90;;;16.79;62.34;102162.25;4841452;29;20094;-68
2022/05/27 10:06:08;;;;;;;29.38;7.75;;;16.50;99.90;;;16.88;61.40;102163.03;4841838;29;20053;-67
2022/05/27 10:08:43;;;;;;;32.08;7.78;;;16.60;99.90;;;16.80;60.92;102140.84;4842397;29;20128;-67
2022/05/27 10:11:22;;;;;;;25.42;6.32;;;16.70;99.90;;;16.84;59.44;102152.41;4841973;29;20053;-68
2022/05/27 10:14:20;;;;;;;26.27;6.88;;;16.60;99.90;;;16.78;59.33;102153.34;4841726;29;20050;-67
2022/05/27 10:17:09;;;;;;;;;;;16.70;99.90;;;16.95;58.77;102169.22;4842615;29;20094;-67
2022/05/27 10:19:45;;;;;;;22.48;6.53;;;16.70;99.90;;;16.83;59.01;102172.91;4841986;29;19979;-67
2022/05/27 10:22:25;;;;;;;24.17;7.33;;;16.60;99.90;;;17.04;58.34;102162.00;4841602;29;20106;-67
2022/05/27 10:24:59;;;;;;;;;;;16.80;99.90;;;17.17;57.00;102172.59;4842050;29;20564;-67
2022/05/27 10:27:35;;;;;;;19.00;6.68;;;16.90;99.90;;;17.03;56.85;102176.25;4841573;29;19924;-68
2022/05/27 10:30:09;;;;;;;23.35;6.47;;;16.80;99.90;;;16.87;55.06;102182.69;4841787;29;20125;-68
2022/05/27 10:32:43;;;;;;;19.30;6.80;;;16.70;99.90;;;16.78;55.98;102139.97;4841496;29;20041;-67
2022/05/27 10:35:33;;;;;;;23.55;6.40;;;16.70;99.90;;;16.96;55.90;102161.19;4841711;29;20133;-67
2022/05/27 10:38:11;;;;;;;;;;;16.70;99.90;;;16.23;53.91;102067.44;4841835;29;20457;-67
2022/05/27 10:40:49;;;;;;;17.67;6.28;;;16.60;99.90;;;16.67;53.67;102165.91;4841724;29;20011;-67
2022/05/27 10:43:37;;;;;;;23.67;6.38;;;16.60;99.90;;;17.14;54.11;102189.53;4841435;29;20045;-68
2022/05/27 10:46:09;;;;;;;16.77;5.68;;;16.80;99.90;;;17.33;53.40;102192.88;4824993;29;20117;-67
2022/05/27 10:49:10;;;;;;;20.00;5.93;;;17.00;99.90;;;17.53;53.70;102181.13;4841301;29;20068;-68
2022/05/27 10:51:52;;;;;;;18.10;5.85;;;17.20;99.90;;;17.49;52.41;102176.69;4841520;29;20141;-67